sensor_id;sensor_type;location;lat;lon;timestamp;P1;durP1;ratioP1;P2;durP2;ratioP2
75423;SDS011;64005;55.160;36.002;2024-03-29T00:02:03;5.05;;;2.40;;
75423;SDS011;64005;55.160;36.002;2024-03-29T00:04:29;10.07;;;3.88;;
75423;SDS011;64005;55.160;36.002;2024-03-29T00:06:55;5.90;;;2.90;;
75423;SDS011;64005;55.160;36.002;2024-03-29T00:09:21;9.48;;;2.53;;
75423;SDS011;64005;55.160;36.002;2024-03-29T00:11:48;5.75;;;3.03;;
75423;SDS011;64005;55.160;36.002;2024-03-29T00:14:14;7.40;;;2.95;;
75423;SDS011;64005;55.160;36.002;2024-03-29T00:16:40;5.75;;;2.33;;
75423;SDS011;64005;55.160;36.002;2024-03-29T00:19:08;8.68;;;3.22;;
75423;SDS011;64005;55.160;36.002;2024-03-29T00:21:34;9.23;;;4.50;;
75423;SDS011;64005;55.160;36.002;2024-03-29T00:24:00;7.70;;;2.88;;
75423;SDS011;64005;55.160;36.002;2024-03-29T00:26:26;11.75;;;2.85;;
75423;SDS011;64005;55.160;36.002;2024-03-29T00:28:52;11.75;;;2.95;;
75423;SDS011;64005;55.160;36.002;2024-03-29T00:31:19;6.97;;;3.83;;
75423;SDS011;64005;55.160;36.002;2024-03-29T00:33:45;6.50;;;2.67;;
75423;SDS011;64005;55.160;36.002;2024-03-29T00:36:13;7.07;;;2.65;;
75423;SDS011;64005;55.160;36.002;2024-03-29T00:38:39;7.90;;;3.70;;
75423;SDS011;64005;55.160;36.002;2024-03-29T00:41:05;7.57;;;2.70;;
75423;SDS011;64005;55.160;36.002;2024-03-29T00:43:31;8.32;;;3.22;;
75423;SDS011;64005;55.160;36.002;2024-03-29T00:45:57;7.43;;;2.70;;
75423;SDS011;64005;55.160;36.002;2024-03-29T00:48:24;6.55;;;2.78;;
75423;SDS011;64005;55.160;36.002;2024-03-29T00:50:50;7.25;;;2.28;;
75423;SDS011;64005;55.160;36.002;2024-03-29T00:53:17;7.47;;;2.55;;
75423;SDS011;64005;55.160;36.002;2024-03-29T00:55:44;9.07;;;3.78;;
75423;SDS011;64005;55.160;36.002;2024-03-29T00:58:10;7.88;;;3.10;;
75423;SDS011;64005;55.160;36.002;2024-03-29T01:00:36;15.30;;;4.30;;
75423;SDS011;64005;55.160;36.002;2024-03-29T01:03:02;8.10;;;3.05;;
75423;SDS011;64005;55.160;36.002;2024-03-29T01:05:29;7.90;;;3.15;;
75423;SDS011;64005;55.160;36.002;2024-03-29T01:07:55;8.05;;;3.22;;
75423;SDS011;64005;55.160;36.002;2024-03-29T01:10:23;6.22;;;2.75;;
75423;SDS011;64005;55.160;36.002;2024-03-29T01:12:49;7.78;;;3.70;;
75423;SDS011;64005;55.160;36.002;2024-03-29T01:15:15;8.95;;;3.53;;
75423;SDS011;64005;55.160;36.002;2024-03-29T01:17:41;8.27;;;3.25;;
75423;SDS011;64005;55.160;36.002;2024-03-29T01:20:08;7.32;;;2.83;;
75423;SDS011;64005;55.160;36.002;2024-03-29T01:22:35;5.97;;;3.17;;
75423;SDS011;64005;55.160;36.002;2024-03-29T01:25:01;12.35;;;3.50;;
75423;SDS011;64005;55.160;36.002;2024-03-29T01:27:30;16.10;;;3.22;;
75423;SDS011;64005;55.160;36.002;2024-03-29T01:29:57;8.43;;;3.58;;
75423;SDS011;64005;55.160;36.002;2024-03-29T01:32:23;17.33;;;3.83;;
75423;SDS011;64005;55.160;36.002;2024-03-29T01:34:49;6.78;;;2.78;;
75423;SDS011;64005;55.160;36.002;2024-03-29T01:37:15;6.03;;;2.67;;
75423;SDS011;64005;55.160;36.002;2024-03-29T01:39:42;3.80;;;1.98;;
75423;SDS011;64005;55.160;36.002;2024-03-29T01:42:08;8.95;;;3.75;;
75423;SDS011;64005;55.160;36.002;2024-03-29T01:44:36;17.98;;;3.33;;
75423;SDS011;64005;55.160;36.002;2024-03-29T01:47:04;7.60;;;2.60;;
75423;SDS011;64005;55.160;36.002;2024-03-29T01:49:31;9.90;;;4.53;;
75423;SDS011;64005;55.160;36.002;2024-03-29T01:51:59;7.28;;;2.97;;
75423;SDS011;64005;55.160;36.002;2024-03-29T01:54:28;9.65;;;3.47;;
75423;SDS011;64005;55.160;36.002;2024-03-29T01:56:56;7.30;;;3.08;;
75423;SDS011;64005;55.160;36.002;2024-03-29T01:59:24;6.78;;;3.13;;
75423;SDS011;64005;55.160;36.002;2024-03-29T02:01:53;9.45;;;3.80;;
75423;SDS011;64005;55.160;36.002;2024-03-29T02:04:21;8.50;;;2.60;;
75423;SDS011;64005;55.160;36.002;2024-03-29T02:06:48;11.52;;;3.72;;
75423;SDS011;64005;55.160;36.002;2024-03-29T02:09:17;6.00;;;2.83;;
75423;SDS011;64005;55.160;36.002;2024-03-29T02:11:44;8.07;;;4.30;;
75423;SDS011;64005;55.160;36.002;2024-03-29T02:14:12;7.32;;;3.63;;
75423;SDS011;64005;55.160;36.002;2024-03-29T02:16:39;7.68;;;3.13;;
75423;SDS011;64005;55.160;36.002;2024-03-29T02:19:09;9.32;;;4.28;;
75423;SDS011;64005;55.160;36.002;2024-03-29T02:21:36;9.73;;;2.80;;
75423;SDS011;64005;55.160;36.002;2024-03-29T02:24:10;10.10;;;3.22;;
75423;SDS011;64005;55.160;36.002;2024-03-29T02:26:41;12.40;;;2.60;;
75423;SDS011;64005;55.160;36.002;2024-03-29T02:29:09;10.60;;;3.67;;
75423;SDS011;64005;55.160;36.002;2024-03-29T02:31:36;8.57;;;2.85;;
75423;SDS011;64005;55.160;36.002;2024-03-29T02:34:03;6.78;;;2.22;;
75423;SDS011;64005;55.160;36.002;2024-03-29T02:36:32;9.38;;;2.95;;
75423;SDS011;64005;55.160;36.002;2024-03-29T02:39:00;5.35;;;2.25;;
75423;SDS011;64005;55.160;36.002;2024-03-29T02:41:29;7.85;;;2.88;;
75423;SDS011;64005;55.160;36.002;2024-03-29T02:43:56;8.27;;;2.92;;
75423;SDS011;64005;55.160;36.002;2024-03-29T02:46:24;7.18;;;2.40;;
75423;SDS011;64005;55.160;36.002;2024-03-29T02:48:51;10.00;;;3.85;;
75423;SDS011;64005;55.160;36.002;2024-03-29T02:51:17;5.35;;;2.53;;
75423;SDS011;64005;55.160;36.002;2024-03-29T02:53:45;10.80;;;3.63;;
75423;SDS011;64005;55.160;36.002;2024-03-29T02:56:11;6.35;;;2.97;;
75423;SDS011;64005;55.160;36.002;2024-03-29T02:58:41;6.57;;;2.65;;
75423;SDS011;64005;55.160;36.002;2024-03-29T03:01:07;8.88;;;2.78;;
75423;SDS011;64005;55.160;36.002;2024-03-29T03:03:34;8.77;;;3.35;;
75423;SDS011;64005;55.160;36.002;2024-03-29T03:06:01;5.47;;;2.53;;
75423;SDS011;64005;55.160;36.002;2024-03-29T03:08:29;11.85;;;3.97;;
75423;SDS011;64005;55.160;36.002;2024-03-29T03:11:14;10.07;;;3.17;;
75423;SDS011;64005;55.160;36.002;2024-03-29T03:13:42;5.25;;;1.48;;
75423;SDS011;64005;55.160;36.002;2024-03-29T03:16:10;6.28;;;2.42;;
75423;SDS011;64005;55.160;36.002;2024-03-29T03:18:37;9.95;;;2.58;;
75423;SDS011;64005;55.160;36.002;2024-03-29T03:21:04;4.75;;;2.30;;
75423;SDS011;64005;55.160;36.002;2024-03-29T03:23:31;4.25;;;1.63;;
75423;SDS011;64005;55.160;36.002;2024-03-29T03:25:58;7.32;;;2.60;;
75423;SDS011;64005;55.160;36.002;2024-03-29T03:28:26;9.52;;;2.80;;
75423;SDS011;64005;55.160;36.002;2024-03-29T03:30:54;9.00;;;2.28;;
75423;SDS011;64005;55.160;36.002;2024-03-29T03:33:21;9.32;;;2.53;;
75423;SDS011;64005;55.160;36.002;2024-03-29T03:35:48;7.57;;;2.22;;
75423;SDS011;64005;55.160;36.002;2024-03-29T03:38:15;4.70;;;2.13;;
75423;SDS011;64005;55.160;36.002;2024-03-29T03:40:42;4.38;;;1.55;;
75423;SDS011;64005;55.160;36.002;2024-03-29T03:43:09;7.35;;;2.58;;
75423;SDS011;64005;55.160;36.002;2024-03-29T03:45:36;7.13;;;2.53;;
75423;SDS011;64005;55.160;36.002;2024-03-29T03:48:06;13.65;;;2.83;;
75423;SDS011;64005;55.160;36.002;2024-03-29T03:50:34;9.98;;;2.85;;
75423;SDS011;64005;55.160;36.002;2024-03-29T03:53:01;4.88;;;2.30;;
75423;SDS011;64005;55.160;36.002;2024-03-29T03:55:28;5.93;;;1.75;;
75423;SDS011;64005;55.160;36.002;2024-03-29T03:57:55;7.80;;;1.95;;
75423;SDS011;64005;55.160;36.002;2024-03-29T04:00:22;8.68;;;2.92;;
75423;SDS011;64005;55.160;36.002;2024-03-29T04:02:49;8.13;;;3.28;;
75423;SDS011;64005;55.160;36.002;2024-03-29T04:05:18;2.97;;;1.27;;
75423;SDS011;64005;55.160;36.002;2024-03-29T04:07:46;4.38;;;1.67;;
75423;SDS011;64005;55.160;36.002;2024-03-29T04:10:12;7.18;;;3.50;;
75423;SDS011;64005;55.160;36.002;2024-03-29T04:12:40;9.75;;;2.95;;
75423;SDS011;64005;55.160;36.002;2024-03-29T04:15:06;16.08;;;2.33;;
75423;SDS011;64005;55.160;36.002;2024-03-29T04:17:36;10.80;;;2.65;;
75423;SDS011;64005;55.160;36.002;2024-03-29T04:20:02;6.25;;;1.88;;
75423;SDS011;64005;55.160;36.002;2024-03-29T04:22:31;8.77;;;4.28;;
75423;SDS011;64005;55.160;36.002;2024-03-29T04:24:58;7.15;;;2.85;;
75423;SDS011;64005;55.160;36.002;2024-03-29T04:27:25;8.02;;;3.47;;
75423;SDS011;64005;55.160;36.002;2024-03-29T04:29:52;6.35;;;2.05;;
75423;SDS011;64005;55.160;36.002;2024-03-29T04:32:20;10.13;;;2.78;;
75423;SDS011;64005;55.160;36.002;2024-03-29T04:34:47;5.25;;;1.98;;
75423;SDS011;64005;55.160;36.002;2024-03-29T04:37:15;5.10;;;2.30;;
75423;SDS011;64005;55.160;36.002;2024-03-29T04:39:46;14.18;;;3.83;;
75423;SDS011;64005;55.160;36.002;2024-03-29T04:42:13;5.13;;;1.98;;
75423;SDS011;64005;55.160;36.002;2024-03-29T04:44:41;6.25;;;2.65;;
75423;SDS011;64005;55.160;36.002;2024-03-29T04:47:08;6.45;;;2.55;;
75423;SDS011;64005;55.160;36.002;2024-03-29T04:49:36;10.73;;;1.92;;
75423;SDS011;64005;55.160;36.002;2024-03-29T04:52:03;6.53;;;2.00;;
75423;SDS011;64005;55.160;36.002;2024-03-29T04:54:31;9.65;;;2.55;;
75423;SDS011;64005;55.160;36.002;2024-03-29T04:57:00;4.55;;;1.85;;
75423;SDS011;64005;55.160;36.002;2024-03-29T04:59:31;7.85;;;2.75;;
75423;SDS011;64005;55.160;36.002;2024-03-29T05:01:59;5.88;;;2.53;;
75423;SDS011;64005;55.160;36.002;2024-03-29T05:04:27;5.13;;;1.85;;
75423;SDS011;64005;55.160;36.002;2024-03-29T05:06:55;9.68;;;3.08;;
75423;SDS011;64005;55.160;36.002;2024-03-29T05:09:23;9.85;;;2.95;;
75423;SDS011;64005;55.160;36.002;2024-03-29T05:11:50;6.13;;;2.50;;
75423;SDS011;64005;55.160;36.002;2024-03-29T05:14:20;4.28;;;2.15;;
75423;SDS011;64005;55.160;36.002;2024-03-29T05:16:48;6.43;;;2.47;;
75423;SDS011;64005;55.160;36.002;2024-03-29T05:19:16;10.20;;;3.00;;
75423;SDS011;64005;55.160;36.002;2024-03-29T05:21:44;12.60;;;3.78;;
75423;SDS011;64005;55.160;36.002;2024-03-29T05:24:11;7.30;;;2.97;;
75423;SDS011;64005;55.160;36.002;2024-03-29T05:26:38;6.95;;;2.75;;
75423;SDS011;64005;55.160;36.002;2024-03-29T05:29:06;9.88;;;2.78;;
75423;SDS011;64005;55.160;36.002;2024-03-29T05:31:35;9.10;;;2.78;;
75423;SDS011;64005;55.160;36.002;2024-03-29T05:34:02;7.50;;;3.17;;
75423;SDS011;64005;55.160;36.002;2024-03-29T05:36:30;10.85;;;3.42;;
75423;SDS011;64005;55.160;36.002;2024-03-29T05:38:57;4.03;;;2.38;;
75423;SDS011;64005;55.160;36.002;2024-03-29T05:41:24;7.45;;;2.92;;
75423;SDS011;64005;55.160;36.002;2024-03-29T05:43:52;8.88;;;2.75;;
75423;SDS011;64005;55.160;36.002;2024-03-29T05:46:20;6.80;;;2.15;;
75423;SDS011;64005;55.160;36.002;2024-03-29T05:48:48;10.27;;;3.60;;
75423;SDS011;64005;55.160;36.002;2024-03-29T05:51:16;7.82;;;3.92;;
75423;SDS011;64005;55.160;36.002;2024-03-29T05:53:43;11.63;;;3.50;;
75423;SDS011;64005;55.160;36.002;2024-03-29T05:56:10;8.27;;;2.72;;
75423;SDS011;64005;55.160;36.002;2024-03-29T05:58:38;4.40;;;2.22;;
75423;SDS011;64005;55.160;36.002;2024-03-29T06:01:05;4.07;;;2.40;;
75423;SDS011;64005;55.160;36.002;2024-03-29T06:03:32;6.97;;;3.03;;
75423;SDS011;64005;55.160;36.002;2024-03-29T06:06:01;13.10;;;2.65;;
75423;SDS011;64005;55.160;36.002;2024-03-29T06:08:28;2.70;;;1.45;;
75423;SDS011;64005;55.160;36.002;2024-03-29T06:10:56;6.53;;;2.75;;
75423;SDS011;64005;55.160;36.002;2024-03-29T06:13:24;7.93;;;3.42;;
75423;SDS011;64005;55.160;36.002;2024-03-29T06:16:16;4.30;;;2.38;;
75423;SDS011;64005;55.160;36.002;2024-03-29T06:19:02;13.35;;;3.03;;
75423;SDS011;64005;55.160;36.002;2024-03-29T06:21:33;5.50;;;2.53;;
75423;SDS011;64005;55.160;36.002;2024-03-29T06:24:05;7.25;;;2.85;;
75423;SDS011;64005;55.160;36.002;2024-03-29T06:26:33;5.63;;;2.55;;
75423;SDS011;64005;55.160;36.002;2024-03-29T06:29:00;7.03;;;2.75;;
75423;SDS011;64005;55.160;36.002;2024-03-29T06:31:28;7.45;;;2.90;;
75423;SDS011;64005;55.160;36.002;2024-03-29T06:33:55;11.18;;;4.00;;
75423;SDS011;64005;55.160;36.002;2024-03-29T06:36:24;4.47;;;2.53;;
75423;SDS011;64005;55.160;36.002;2024-03-29T06:38:52;9.85;;;4.00;;
75423;SDS011;64005;55.160;36.002;2024-03-29T06:41:20;7.38;;;3.05;;
75423;SDS011;64005;55.160;36.002;2024-03-29T06:43:47;7.30;;;3.67;;
75423;SDS011;64005;55.160;36.002;2024-03-29T06:46:15;9.20;;;3.35;;
75423;SDS011;64005;55.160;36.002;2024-03-29T06:48:42;15.18;;;3.25;;
75423;SDS011;64005;55.160;36.002;2024-03-29T06:51:10;11.15;;;3.78;;
75423;SDS011;64005;55.160;36.002;2024-03-29T06:53:37;7.38;;;3.17;;
75423;SDS011;64005;55.160;36.002;2024-03-29T06:56:06;6.28;;;4.15;;
75423;SDS011;64005;55.160;36.002;2024-03-29T06:58:34;3.03;;;1.55;;
75423;SDS011;64005;55.160;36.002;2024-03-29T07:01:01;7.13;;;3.42;;
75423;SDS011;64005;55.160;36.002;2024-03-29T07:06:08;6.07;;;2.47;;
75423;SDS011;64005;55.160;36.002;2024-03-29T07:08:36;5.38;;;3.25;;
75423;SDS011;64005;55.160;36.002;2024-03-29T07:11:03;7.30;;;3.38;;
75423;SDS011;64005;55.160;36.002;2024-03-29T07:13:32;5.85;;;2.72;;
75423;SDS011;64005;55.160;36.002;2024-03-29T07:15:59;15.85;;;3.80;;
75423;SDS011;64005;55.160;36.002;2024-03-29T07:18:33;7.25;;;3.58;;
75423;SDS011;64005;55.160;36.002;2024-03-29T07:24:08;14.32;;;4.00;;
75423;SDS011;64005;55.160;36.002;2024-03-29T07:26:36;9.43;;;3.22;;
75423;SDS011;64005;55.160;36.002;2024-03-29T07:29:05;11.82;;;4.38;;
75423;SDS011;64005;55.160;36.002;2024-03-29T07:31:32;10.20;;;3.53;;
75423;SDS011;64005;55.160;36.002;2024-03-29T07:34:00;14.40;;;3.53;;
75423;SDS011;64005;55.160;36.002;2024-03-29T07:36:27;13.38;;;3.95;;
75423;SDS011;64005;55.160;36.002;2024-03-29T07:38:59;7.40;;;3.15;;
75423;SDS011;64005;55.160;36.002;2024-03-29T07:41:26;9.27;;;3.20;;
75423;SDS011;64005;55.160;36.002;2024-03-29T07:43:54;9.80;;;3.92;;
75423;SDS011;64005;55.160;36.002;2024-03-29T07:46:34;8.25;;;3.45;;
75423;SDS011;64005;55.160;36.002;2024-03-29T07:49:02;7.45;;;3.90;;
75423;SDS011;64005;55.160;36.002;2024-03-29T07:54:17;6.75;;;3.30;;
75423;SDS011;64005;55.160;36.002;2024-03-29T07:56:46;8.43;;;3.45;;
75423;SDS011;64005;55.160;36.002;2024-03-29T07:59:32;9.90;;;4.05;;
75423;SDS011;64005;55.160;36.002;2024-03-29T08:02:01;7.55;;;3.45;;
75423;SDS011;64005;55.160;36.002;2024-03-29T08:04:29;6.82;;;2.63;;
75423;SDS011;64005;55.160;36.002;2024-03-29T08:07:11;4.18;;;2.55;;
75423;SDS011;64005;55.160;36.002;2024-03-29T08:09:38;7.50;;;3.58;;
75423;SDS011;64005;55.160;36.002;2024-03-29T08:12:08;12.38;;;5.03;;
75423;SDS011;64005;55.160;36.002;2024-03-29T08:14:36;10.82;;;3.65;;
75423;SDS011;64005;55.160;36.002;2024-03-29T08:17:04;9.93;;;3.65;;
75423;SDS011;64005;55.160;36.002;2024-03-29T08:19:34;9.73;;;3.47;;
75423;SDS011;64005;55.160;36.002;2024-03-29T08:22:02;6.53;;;2.58;;
75423;SDS011;64005;55.160;36.002;2024-03-29T08:27:11;4.75;;;2.83;;
75423;SDS011;64005;55.160;36.002;2024-03-29T08:29:40;13.18;;;3.72;;
75423;SDS011;64005;55.160;36.002;2024-03-29T08:32:09;6.20;;;2.75;;
75423;SDS011;64005;55.160;36.002;2024-03-29T08:34:37;6.95;;;4.00;;
75423;SDS011;64005;55.160;36.002;2024-03-29T08:37:05;9.43;;;4.32;;
75423;SDS011;64005;55.160;36.002;2024-03-29T08:39:32;11.10;;;3.65;;
75423;SDS011;64005;55.160;36.002;2024-03-29T08:41:59;7.93;;;4.10;;
75423;SDS011;64005;55.160;36.002;2024-03-29T08:44:31;13.65;;;4.50;;
75423;SDS011;64005;55.160;36.002;2024-03-29T08:46:59;9.70;;;4.93;;
75423;SDS011;64005;55.160;36.002;2024-03-29T08:49:30;11.18;;;4.20;;
75423;SDS011;64005;55.160;36.002;2024-03-29T08:52:04;10.55;;;4.65;;
75423;SDS011;64005;55.160;36.002;2024-03-29T08:54:31;13.07;;;4.93;;
75423;SDS011;64005;55.160;36.002;2024-03-29T08:56:59;13.13;;;4.97;;
75423;SDS011;64005;55.160;36.002;2024-03-29T08:59:27;12.80;;;4.35;;
75423;SDS011;64005;55.160;36.002;2024-03-29T09:02:03;10.65;;;4.10;;
75423;SDS011;64005;55.160;36.002;2024-03-29T09:04:45;11.63;;;4.50;;
75423;SDS011;64005;55.160;36.002;2024-03-29T09:07:13;12.80;;;5.55;;
75423;SDS011;64005;55.160;36.002;2024-03-29T09:09:40;12.38;;;5.30;;
75423;SDS011;64005;55.160;36.002;2024-03-29T09:12:08;9.73;;;3.53;;
75423;SDS011;64005;55.160;36.002;2024-03-29T09:14:35;11.32;;;3.97;;
75423;SDS011;64005;55.160;36.002;2024-03-29T09:17:03;11.27;;;4.38;;
75423;SDS011;64005;55.160;36.002;2024-03-29T09:19:32;10.48;;;4.13;;
75423;SDS011;64005;55.160;36.002;2024-03-29T09:22:02;10.38;;;4.05;;
75423;SDS011;64005;55.160;36.002;2024-03-29T09:35:18;7.32;;;3.30;;
75423;SDS011;64005;55.160;36.002;2024-03-29T09:37:47;14.40;;;3.72;;
75423;SDS011;64005;55.160;36.002;2024-03-29T09:40:15;8.98;;;4.53;;
75423;SDS011;64005;55.160;36.002;2024-03-29T09:42:43;12.20;;;4.47;;
75423;SDS011;64005;55.160;36.002;2024-03-29T09:45:11;11.88;;;4.28;;
75423;SDS011;64005;55.160;36.002;2024-03-29T09:47:40;11.68;;;4.20;;
75423;SDS011;64005;55.160;36.002;2024-03-29T09:50:09;8.85;;;3.47;;
75423;SDS011;64005;55.160;36.002;2024-03-29T09:55:22;7.93;;;3.58;;
75423;SDS011;64005;55.160;36.002;2024-03-29T10:07:16;8.52;;;3.78;;
75423;SDS011;64005;55.160;36.002;2024-03-29T10:09:46;9.43;;;3.45;;
75423;SDS011;64005;55.160;36.002;2024-03-29T10:20:01;6.95;;;3.38;;
75423;SDS011;64005;55.160;36.002;2024-03-29T10:22:29;9.98;;;3.17;;
75423;SDS011;64005;55.160;36.002;2024-03-29T10:27:48;10.38;;;3.83;;
75423;SDS011;64005;55.160;36.002;2024-03-29T10:30:16;5.68;;;2.97;;
75423;SDS011;64005;55.160;36.002;2024-03-29T10:32:46;8.95;;;3.38;;
75423;SDS011;64005;55.160;36.002;2024-03-29T13:05:29;4.85;;;1.83;;
75423;SDS011;64005;55.160;36.002;2024-03-29T13:08:00;6.10;;;2.10;;
75423;SDS011;64005;55.160;36.002;2024-03-29T13:13:14;6.13;;;2.25;;
75423;SDS011;64005;55.160;36.002;2024-03-29T13:18:19;4.18;;;1.95;;
75423;SDS011;64005;55.160;36.002;2024-03-29T13:20:46;5.50;;;2.50;;
75423;SDS011;64005;55.160;36.002;2024-03-29T13:29:06;8.80;;;2.20;;
75423;SDS011;64005;55.160;36.002;2024-03-29T13:31:49;4.10;;;1.92;;
75423;SDS011;64005;55.160;36.002;2024-03-29T13:34:17;5.93;;;2.63;;
75423;SDS011;64005;55.160;36.002;2024-03-29T13:36:45;10.18;;;3.08;;
75423;SDS011;64005;55.160;36.002;2024-03-29T13:39:12;7.68;;;2.00;;
75423;SDS011;64005;55.160;36.002;2024-03-29T13:45:28;8.88;;;2.00;;
75423;SDS011;64005;55.160;36.002;2024-03-29T13:47:55;6.65;;;2.22;;
75423;SDS011;64005;55.160;36.002;2024-03-29T13:50:40;8.70;;;2.25;;
75423;SDS011;64005;55.160;36.002;2024-03-29T14:08:40;5.22;;;1.88;;
75423;SDS011;64005;55.160;36.002;2024-03-29T14:13:52;8.88;;;1.77;;
75423;SDS011;64005;55.160;36.002;2024-03-29T14:16:23;6.78;;;2.28;;
75423;SDS011;64005;55.160;36.002;2024-03-29T15:01:01;5.88;;;2.13;;
75423;SDS011;64005;55.160;36.002;2024-03-29T15:03:29;8.73;;;2.63;;
75423;SDS011;64005;55.160;36.002;2024-03-29T15:05:59;9.52;;;2.53;;
75423;SDS011;64005;55.160;36.002;2024-03-29T15:08:28;7.70;;;2.55;;
75423;SDS011;64005;55.160;36.002;2024-03-29T15:10:56;5.28;;;2.13;;
75423;SDS011;64005;55.160;36.002;2024-03-29T15:13:42;5.97;;;2.10;;
75423;SDS011;64005;55.160;36.002;2024-03-29T15:16:09;5.53;;;1.80;;
75423;SDS011;64005;55.160;36.002;2024-03-29T15:18:37;4.65;;;1.65;;
75423;SDS011;64005;55.160;36.002;2024-03-29T15:21:13;5.43;;;2.00;;
75423;SDS011;64005;55.160;36.002;2024-03-29T15:23:47;4.60;;;1.85;;
75423;SDS011;64005;55.160;36.002;2024-03-29T15:26:15;6.75;;;2.20;;
75423;SDS011;64005;55.160;36.002;2024-03-29T15:31:40;8.73;;;3.85;;
75423;SDS011;64005;55.160;36.002;2024-03-29T15:34:09;8.75;;;4.20;;
75423;SDS011;64005;55.160;36.002;2024-03-29T15:36:38;8.07;;;3.33;;
75423;SDS011;64005;55.160;36.002;2024-03-29T15:39:19;13.65;;;5.25;;
75423;SDS011;64005;55.160;36.002;2024-03-29T15:41:48;9.80;;;4.88;;
75423;SDS011;64005;55.160;36.002;2024-03-29T15:44:15;6.07;;;2.72;;
75423;SDS011;64005;55.160;36.002;2024-03-29T15:49:38;9.57;;;2.13;;
75423;SDS011;64005;55.160;36.002;2024-03-29T15:54:55;8.80;;;2.50;;
75423;SDS011;64005;55.160;36.002;2024-03-29T15:57:22;8.10;;;2.70;;
75423;SDS011;64005;55.160;36.002;2024-03-29T15:59:49;12.07;;;3.08;;
75423;SDS011;64005;55.160;36.002;2024-03-29T16:02:17;15.93;;;3.55;;
75423;SDS011;64005;55.160;36.002;2024-03-29T16:04:44;5.95;;;2.30;;
75423;SDS011;64005;55.160;36.002;2024-03-29T16:07:11;5.72;;;1.90;;
75423;SDS011;64005;55.160;36.002;2024-03-29T16:09:40;7.30;;;1.98;;
75423;SDS011;64005;55.160;36.002;2024-03-29T16:12:07;9.10;;;2.42;;
75423;SDS011;64005;55.160;36.002;2024-03-29T16:14:35;9.65;;;2.55;;
75423;SDS011;64005;55.160;36.002;2024-03-29T16:17:02;10.45;;;1.70;;
75423;SDS011;64005;55.160;36.002;2024-03-29T16:19:30;5.22;;;1.90;;
75423;SDS011;64005;55.160;36.002;2024-03-29T16:24:54;7.32;;;2.35;;
75423;SDS011;64005;55.160;36.002;2024-03-29T16:27:20;7.28;;;1.90;;
75423;SDS011;64005;55.160;36.002;2024-03-29T16:29:48;4.43;;;1.40;;
75423;SDS011;64005;55.160;36.002;2024-03-29T16:32:14;4.78;;;1.50;;
75423;SDS011;64005;55.160;36.002;2024-03-29T16:34:42;2.92;;;1.30;;
75423;SDS011;64005;55.160;36.002;2024-03-29T16:37:08;5.40;;;1.90;;
75423;SDS011;64005;55.160;36.002;2024-03-29T16:39:36;10.18;;;2.38;;
75423;SDS011;64005;55.160;36.002;2024-03-29T16:44:55;8.25;;;2.13;;
75423;SDS011;64005;55.160;36.002;2024-03-29T16:47:21;9.38;;;2.08;;
75423;SDS011;64005;55.160;36.002;2024-03-29T16:49:49;5.75;;;2.30;;
75423;SDS011;64005;55.160;36.002;2024-03-29T16:52:15;4.43;;;2.42;;
75423;SDS011;64005;55.160;36.002;2024-03-29T16:54:42;4.07;;;1.50;;
75423;SDS011;64005;55.160;36.002;2024-03-29T16:57:08;4.60;;;2.03;;
75423;SDS011;64005;55.160;36.002;2024-03-29T16:59:37;6.40;;;2.35;;
75423;SDS011;64005;55.160;36.002;2024-03-29T17:02:04;3.60;;;1.45;;
75423;SDS011;64005;55.160;36.002;2024-03-29T17:04:50;5.70;;;1.70;;
75423;SDS011;64005;55.160;36.002;2024-03-29T17:07:17;5.13;;;1.80;;
75423;SDS011;64005;55.160;36.002;2024-03-29T17:09:45;5.88;;;1.73;;
75423;SDS011;64005;55.160;36.002;2024-03-29T17:12:11;6.65;;;1.90;;
75423;SDS011;64005;55.160;36.002;2024-03-29T17:14:41;3.80;;;1.80;;
75423;SDS011;64005;55.160;36.002;2024-03-29T17:17:08;4.25;;;1.80;;
75423;SDS011;64005;55.160;36.002;2024-03-29T17:19:35;2.42;;;1.23;;
75423;SDS011;64005;55.160;36.002;2024-03-29T17:22:02;4.03;;;1.58;;
75423;SDS011;64005;55.160;36.002;2024-03-29T17:24:30;2.22;;;0.85;;
75423;SDS011;64005;55.160;36.002;2024-03-29T17:26:57;3.22;;;1.50;;
75423;SDS011;64005;55.160;36.002;2024-03-29T17:29:25;2.85;;;1.13;;
75423;SDS011;64005;55.160;36.002;2024-03-29T17:32:02;3.28;;;0.80;;
75423;SDS011;64005;55.160;36.002;2024-03-29T17:34:29;4.03;;;1.02;;
75423;SDS011;64005;55.160;36.002;2024-03-29T17:36:56;3.55;;;1.10;;
75423;SDS011;64005;55.160;36.002;2024-03-29T17:39:23;1.05;;;0.73;;
75423;SDS011;64005;55.160;36.002;2024-03-29T17:41:49;2.58;;;0.77;;
75423;SDS011;64005;55.160;36.002;2024-03-29T17:44:17;2.45;;;0.88;;
75423;SDS011;64005;55.160;36.002;2024-03-29T17:46:44;0.95;;;0.57;;
75423;SDS011;64005;55.160;36.002;2024-03-29T17:49:15;1.50;;;0.70;;
75423;SDS011;64005;55.160;36.002;2024-03-29T17:51:42;1.25;;;0.60;;
75423;SDS011;64005;55.160;36.002;2024-03-29T17:54:10;2.45;;;0.80;;
75423;SDS011;64005;55.160;36.002;2024-03-29T17:56:37;0.75;;;0.35;;
75423;SDS011;64005;55.160;36.002;2024-03-29T17:59:12;1.85;;;0.80;;
75423;SDS011;64005;55.160;36.002;2024-03-29T18:01:40;1.83;;;0.75;;
75423;SDS011;64005;55.160;36.002;2024-03-29T18:04:08;1.40;;;0.60;;
75423;SDS011;64005;55.160;36.002;2024-03-29T18:06:35;0.75;;;0.30;;
75423;SDS011;64005;55.160;36.002;2024-03-29T18:09:03;2.15;;;0.85;;
75423;SDS011;64005;55.160;36.002;2024-03-29T18:11:30;0.70;;;0.30;;
75423;SDS011;64005;55.160;36.002;2024-03-29T18:13:57;1.73;;;0.70;;
75423;SDS011;64005;55.160;36.002;2024-03-29T18:16:23;1.25;;;0.40;;
75423;SDS011;64005;55.160;36.002;2024-03-29T18:18:51;1.92;;;0.70;;
75423;SDS011;64005;55.160;36.002;2024-03-29T18:21:17;2.28;;;0.60;;
75423;SDS011;64005;55.160;36.002;2024-03-29T18:23:46;2.95;;;0.63;;
75423;SDS011;64005;55.160;36.002;2024-03-29T18:26:12;0.80;;;0.40;;
75423;SDS011;64005;55.160;36.002;2024-03-29T18:28:40;2.50;;;0.77;;
75423;SDS011;64005;55.160;36.002;2024-03-29T18:31:06;1.50;;;0.55;;
75423;SDS011;64005;55.160;36.002;2024-03-29T18:33:34;1.10;;;0.40;;
75423;SDS011;64005;55.160;36.002;2024-03-29T18:36:01;1.88;;;0.60;;
75423;SDS011;64005;55.160;36.002;2024-03-29T18:38:28;0.88;;;0.30;;
75423;SDS011;64005;55.160;36.002;2024-03-29T18:40:59;1.75;;;0.85;;
75423;SDS011;64005;55.160;36.002;2024-03-29T18:43:27;3.72;;;0.57;;
75423;SDS011;64005;55.160;36.002;2024-03-29T18:45:54;1.85;;;0.68;;
75423;SDS011;64005;55.160;36.002;2024-03-29T18:48:28;3.17;;;0.70;;
75423;SDS011;64005;55.160;36.002;2024-03-29T18:50:54;2.13;;;0.93;;
75423;SDS011;64005;55.160;36.002;2024-03-29T18:53:22;0.82;;;0.30;;
75423;SDS011;64005;55.160;36.002;2024-03-29T18:55:56;3.72;;;1.00;;
75423;SDS011;64005;55.160;36.002;2024-03-29T18:58:27;3.15;;;0.73;;
75423;SDS011;64005;55.160;36.002;2024-03-29T19:00:54;8.30;;;1.50;;
75423;SDS011;64005;55.160;36.002;2024-03-29T19:03:22;3.67;;;1.00;;
75423;SDS011;64005;55.160;36.002;2024-03-29T19:05:49;1.05;;;0.60;;
75423;SDS011;64005;55.160;36.002;2024-03-29T19:08:16;1.95;;;0.75;;
75423;SDS011;64005;55.160;36.002;2024-03-29T19:10:43;3.90;;;1.42;;
75423;SDS011;64005;55.160;36.002;2024-03-29T19:13:10;4.13;;;1.10;;
75423;SDS011;64005;55.160;36.002;2024-03-29T19:15:38;3.38;;;1.58;;
75423;SDS011;64005;55.160;36.002;2024-03-29T19:18:05;1.38;;;0.70;;
75423;SDS011;64005;55.160;36.002;2024-03-29T19:20:32;1.80;;;0.80;;
75423;SDS011;64005;55.160;36.002;2024-03-29T19:23:00;2.97;;;1.05;;